Time;durP1;ratioP1;P1;durP2;ratioP2;P2;SDS_P1;SDS_P2;PMS_P1;PMS_P2;Temp;Humidity;BMP_temperature;BMP_pressure;BME280_temperature;BME280_humidity;BME280_pressure;Samples;Min_cycle;Max_cycle;Signal;HPM_P1;HPM_P2
2022/05/12 00:02:02;;;;;;;8.90;4.62;;;;;;;17.42;52.56;99835.81;7712709;32;38030;-72
2022/05/12 00:06:18;;;;;;;8.00;4.35;;;;;;;17.19;53.43;99833.06;7714286;32;36854;-73
2022/05/12 00:10:34;;;;;;;10.20;4.95;;;;;;;17.15;53.76;99845.84;7735450;32;39725;-72
2022/05/12 00:14:50;;;;;;;7.40;4.75;;;;;;;16.93;54.23;99843.13;7712979;32;40643;-72
2022/05/12 00:19:07;;;;;;;7.47;4.80;;;;;;;17.24;53.25;99830.19;7712990;32;37651;-73
2022/05/12 00:23:28;;;;;;;8.43;5.28;;;;;;;16.99;54.27;99828.06;7713176;32;37445;-72
2022/05/12 00:27:44;;;;;;;7.65;5.37;;;;;;;17.19;53.69;99824.81;7713255;32;39874;-72
2022/05/12 00:32:00;;;;;;;8.38;4.78;;;;;;;17.15;54.28;99823.03;7713159;32;40595;-72
2022/05/12 00:36:16;;;;;;;8.85;5.18;;;;;;;17.50;53.22;99815.72;7712863;32;37705;-73
2022/05/12 00:40:33;;;;;;;14.20;5.35;;;;;;;17.16;54.59;99819.13;7712860;32;37173;-72
2022/05/12 00:44:49;;;;;;;9.75;5.45;;;;;;;17.15;54.78;99815.56;7712924;32;39469;-73
2022/05/12 00:49:12;;;;;;;9.77;5.45;;;;;;;16.93;55.56;99813.62;7712875;32;39914;-73
2022/05/12 00:53:30;;;;;;;11.15;5.70;;;;;;;17.00;55.39;99815.94;7711651;32;37792;-72
2022/05/12 00:57:51;;;;;;;10.05;5.20;;;;;;;16.97;55.54;99811.06;7712705;32;37670;-72
2022/05/12 01:02:11;;;;;;;9.25;5.35;;;;;;;16.66;56.39;99817.28;7712584;32;39256;-72
2022/05/12 01:06:28;;;;;;;7.20;5.10;;;;;;;16.68;56.04;99809.56;7723652;32;40003;-72
2022/05/12 01:10:50;;;;;;;10.02;5.32;;;;;;;16.78;55.76;99800.22;7736908;32;37920;-71
2022/05/12 01:15:15;;;;;;;11.35;6.32;;;;;;;16.71;56.33;99807.00;7739116;32;37146;-73
2022/05/12 01:19:37;;;;;;;11.12;5.40;;;;;;;16.61;56.67;99803.66;7739287;32;39286;-72
2022/05/12 01:23:53;;;;;;;8.00;5.47;;;;;;;16.58;56.72;99801.53;7739184;32;40893;-72
2022/05/12 01:28:09;;;;;;;9.18;5.50;;;;;;;16.75;56.27;99798.09;7739053;32;37947;-72
2022/05/12 01:32:28;;;;;;;9.23;5.12;;;;;;;16.55;57.21;99804.91;7738991;32;37661;-73
2022/05/12 01:36:44;;;;;;;11.45;5.55;;;;;;;16.65;56.76;99807.41;7738933;32;38614;-72
2022/05/12 01:41:00;;;;;;;9.15;5.87;;;;;;;16.65;56.70;99799.97;7730413;32;39902;-73
2022/05/12 01:45:17;;;;;;;9.48;5.82;;;;;;;16.64;57.05;99798.34;7711935;32;37825;-72
2022/05/12 01:49:33;;;;;;;9.75;5.78;;;;;;;16.64;57.90;99808.53;7712117;32;38007;-72
2022/05/12 01:53:49;;;;;;;13.15;6.12;;;;;;;16.82;56.63;99791.03;7712091;32;39332;-71
2022/05/12 01:58:06;;;;;;;8.73;5.45;;;;;;;16.46;58.46;99794.63;7711986;32;39846;-71
2022/05/12 02:02:23;;;;;;;9.15;5.78;;;;;;;16.19;59.03;99789.22;7711868;32;37693;-72
2022/05/12 02:06:39;;;;;;;10.43;6.45;;;;;;;16.25;58.89;99797.06;7726273;32;37158;-72
2022/05/12 02:10:56;;;;;;;8.98;5.68;;;;;;;16.47;57.96;99796.28;7737213;32;40104;-72
2022/05/12 02:15:12;;;;;;;8.48;5.53;;;;;;;16.15;58.68;99809.09;7738536;32;40159;-72
2022/05/12 02:19:29;;;;;;;9.73;5.60;;;;;;;16.29;58.10;99814.56;7737332;32;37657;-73
2022/05/12 02:23:45;;;;;;;11.05;6.12;;;;;;;16.59;56.77;99803.97;7738569;32;37000;-72
2022/05/12 02:28:01;;;;;;;9.10;5.18;;;;;;;16.51;56.83;99805.53;7738425;32;39968;-72
2022/05/12 02:32:17;;;;;;;10.00;6.25;;;;;;;16.39;57.57;99802.50;7738189;32;39853;-72
2022/05/12 02:36:33;;;;;;;9.77;5.78;;;;;;;16.28;58.06;99806.59;7738256;32;38571;-72
2022/05/12 02:40:49;;;;;;;11.32;5.60;;;;;;;16.26;58.32;99803.34;7730567;32;37764;-72
2022/05/12 02:45:06;;;;;;;11.02;5.75;;;;;;;16.23;58.18;99803.97;7711569;32;39496;-71
2022/05/12 02:49:23;;;;;;;19.02;6.35;;;;;;;16.05;58.83;99809.31;7712375;32;39986;-72
2022/05/12 02:53:39;;;;;;;11.10;6.80;;;;;;;15.87;59.05;99799.25;7738146;32;37916;-72
2022/05/12 02:57:55;;;;;;;12.32;6.12;;;;;;;16.03;59.17;99808.81;7738060;32;37880;-71
2022/05/12 03:02:11;;;;;;;10.35;5.97;;;;;;;15.98;59.39;99808.09;7738127;32;39357;-71
2022/05/12 03:06:28;;;;;;;9.05;5.93;;;;;;;16.09;58.80;99813.09;7736398;32;39988;-71
2022/05/12 03:10:45;;;;;;;10.48;6.57;;;;;;;15.94;59.25;99819.72;7730365;32;38510;-71
2022/05/12 03:15:01;;;;;;;10.30;6.12;;;;;;;15.88;59.37;99814.62;7711108;32;38065;-72
2022/05/12 03:19:17;;;;;;;10.82;6.37;;;;;;;15.64;60.32;99815.59;7710963;32;40075;-71
2022/05/12 03:23:33;;;;;;;11.20;6.32;;;;;;;15.65;60.00;99817.25;7710890;32;40742;-73
2022/05/12 03:27:49;;;;;;;12.00;6.30;;;;;;;15.81;60.04;99815.03;7710821;32;37904;-71
2022/05/12 03:32:10;;;;;;;14.10;6.10;;;;;;;15.78;59.49;99818.41;7710820;32;37889;-72
2022/05/12 03:36:26;;;;;;;12.40;6.05;;;;;;;16.00;59.18;99816.84;7710127;32;40081;-72
2022/05/12 03:40:42;;;;;;;13.95;6.85;;;;;;;16.01;59.14;99824.78;7717562;32;40606;-73
2022/05/12 03:44:59;;;;;;;15.70;6.12;;;;;;;15.97;59.64;99823.78;7737247;32;37707;-72
2022/05/12 03:49:15;;;;;;;12.07;6.47;;;;;;;15.93;59.87;99826.31;7736976;32;37193;-72
2022/05/12 03:53:32;;;;;;;12.45;6.87;;;;;;;15.68;60.98;99827.63;7737106;32;40142;-71
2022/05/12 03:57:51;;;;;;;10.00;6.20;;;;;;;16.07;59.55;99837.28;7735885;32;40491;-72
2022/05/12 04:02:08;;;;;;;12.13;6.05;;;;;;;16.40;58.58;99842.66;7719300;32;36807;-73
2022/05/12 04:06:24;;;;;;;12.73;7.03;;;;;;;15.98;60.37;99839.16;7710064;32;37103;-72
2022/05/12 04:10:41;;;;;;;11.23;6.80;;;;;;;15.90;60.74;99835.19;7710691;32;39100;-71
2022/05/12 04:14:57;;;;;;;12.15;6.85;;;;;;;16.06;60.37;99848.63;7709873;32;39894;-72
2022/05/12 04:19:14;;;;;;;10.88;6.53;;;;;;;16.33;59.39;99842.25;7709521;32;38674;-71
2022/05/12 04:23:30;;;;;;;13.55;7.55;;;;;;;16.00;60.63;99856.16;7709620;32;37772;-72
2022/05/12 04:27:49;;;;;;;9.77;6.53;;;;;;;16.24;60.00;99846.88;7708569;32;39357;-72
2022/05/12 04:32:06;;;;;;;14.25;6.72;;;;;;;16.15;60.51;99844.84;7709383;32;40001;-71
2022/05/12 04:36:22;;;;;;;12.82;7.57;;;;;;;16.38;59.91;99850.38;7709125;32;37864;-71
2022/05/12 04:40:38;;;;;;;12.40;7.40;;;;;;;16.52;59.26;99853.94;7715866;32;38031;-71
2022/05/12 04:44:55;;;;;;;14.68;6.85;;;;;;;16.36;59.79;99857.34;7735898;32;39085;-71
2022/05/12 04:49:13;;;;;;;13.05;7.15;;;;;;;16.36;60.47;99863.66;7738704;32;40771;-72
2022/05/12 04:53:30;;;;;;;17.80;7.18;;;;;;;16.55;59.68;99863.50;7739608;32;37057;-71
2022/05/12 04:57:48;;;;;;;11.40;6.82;;;;;;;16.71;59.56;99863.97;7739043;32;36893;-72
2022/05/12 05:02:04;;;;;;;20.73;6.57;;;;;;;16.77;59.56;99857.22;7712719;32;39283;-73
2022/05/12 05:06:20;;;;;;;9.15;5.35;;;;;;;17.26;58.20;99872.03;7712610;32;39906;-75
2022/05/12 05:10:36;;;;;;;13.50;6.25;;;;;;;17.92;57.75;99871.41;7719424;32;38497;-75
2022/05/12 05:14:52;;;;;;;13.85;7.22;;;;;;;18.49;54.75;99875.25;7739221;32;36912;-75
2022/05/12 05:19:08;;;;;;;14.13;7.40;;;;;;;18.67;53.01;99865.06;7739159;32;40070;-72
2022/05/12 05:23:25;;;;;;;14.55;7.03;;;;;;;18.36;52.32;99868.75;7739204;32;40733;-70
2022/05/12 05:27:41;;;;;;;13.85;7.05;;;;;;;18.56;53.04;99875.62;7739088;32;38578;-82
2022/05/12 05:31:57;;;;;;;13.13;7.37;;;;;;;18.97;51.71;99868.00;7738200;32;37043;-76
2022/05/12 05:36:17;;;;;;;13.30;6.97;;;;;;;18.72;53.18;99871.22;7738958;32;39268;-76
2022/05/12 05:40:33;;;;;;;13.00;6.55;;;;;;;18.88;52.80;99876.28;7738493;32;40753;-77
2022/05/12 05:44:49;;;;;;;12.68;7.10;;;;;;;19.02;52.74;99881.66;7738840;32;37845;-75
2022/05/12 05:49:05;;;;;;;12.85;6.43;;;;;;;19.32;52.63;99890.88;7738949;32;37093;-77
2022/05/12 05:53:25;;;;;;;11.68;6.62;;;;;;;19.62;51.11;99882.66;7717113;32;39968;-77
2022/05/12 05:57:43;;;;;;;15.35;6.55;;;;;;;19.83;50.62;99891.91;7711532;32;39937;-77
2022/05/12 06:02:00;;;;;;;17.37;6.75;;;;;;;20.19;49.81;99884.25;7711762;32;37988;-76
2022/05/12 06:06:17;;;;;;;13.40;6.62;;;;;;;19.55;52.21;99887.91;7711870;32;37180;-76
2022/05/12 06:10:34;;;;;;;11.30;6.78;;;;;;;20.13;51.60;99886.41;7728321;32;39400;-77
2022/05/12 06:14:50;;;;;;;12.55;7.10;;;;;;;19.66;52.71;99895.50;7738391;32;39980;-79
2022/05/12 06:19:06;;;;;;;12.43;7.07;;;;;;;20.21;51.76;99888.31;7738538;32;38306;-79
2022/05/12 06:23:22;;;;;;;13.02;6.72;;;;;;;20.19;51.72;99890.56;7738635;32;37695;-84
2022/05/12 06:27:38;;;;;;;12.45;6.95;;;;;;;19.81;52.76;99880.34;7735617;32;39186;-79
2022/05/12 06:31:54;;;;;;;9.77;6.75;;;;;;;20.07;52.37;99887.72;7735948;32;39770;-78
2022/05/12 06:36:10;;;;;;;11.00;6.90;;;;;;;20.12;52.19;99887.53;7737231;32;37673;-78
2022/05/12 06:40:26;;;;;;;11.77;7.10;;;;;;;19.89;53.39;99889.75;7736916;32;36859;-79
2022/05/12 06:44:44;;;;;;;9.70;6.40;;;;;;;20.08;52.88;99889.34;7725365;32;39105;-79
2022/05/12 06:49:02;;;;;;;11.10;6.20;;;;;;;20.26;51.65;99879.81;7722804;32;39980;-79
2022/05/12 06:53:18;;;;;;;9.18;5.75;;;;;;;20.63;50.51;99877.31;7711285;32;36846;-79
2022/05/12 06:57:35;;;;;;;16.02;6.85;;;;;;;21.13;48.49;99877.56;7710197;32;37673;-78
2022/05/12 07:01:50;;;;;;;9.35;5.90;;;;;;;20.84;49.16;99870.94;7728374;32;39485;-79
2022/05/12 07:06:07;;;;;;;15.57;6.32;;;;;;;20.83;46.98;99869.31;7737960;32;40757;-81
2022/05/12 07:10:25;;;;;;;10.52;5.50;;;;;;;20.94;48.86;99862.22;7720131;32;38900;-74
2022/05/12 07:14:42;;;;;;;12.43;6.15;;;;;;;21.36;47.86;99858.56;7710894;32;37234;-73
2022/05/12 07:18:58;;;;;;;12.82;5.72;;;;;;;21.83;46.10;99862.94;7710973;32;40085;-73
2022/05/12 07:27:49;;;;;;;11.38;5.95;;;;;;;22.39;45.36;99860.41;7711167;32;37653;-74
2022/05/12 07:32:07;;;;;;;12.32;6.45;;;;;;;22.56;46.13;99864.03;7729526;32;37377;-74
2022/05/12 07:36:26;;;;;;;11.63;5.68;;;;;;;22.97;45.44;99862.88;7717128;32;39558;-73
2022/05/12 07:40:42;;;;;;;15.55;6.40;;;;;;;23.27;45.55;99864.50;7713820;32;40789;-73
2022/05/12 07:44:58;;;;;;;12.75;6.03;;;;;;;22.93;46.81;99866.72;7737380;32;37863;-73
2022/05/12 07:49:15;;;;;;;11.15;5.47;;;;;;;23.45;44.28;99863.00;7737256;32;37438;-74
2022/05/12 07:53:38;;;;;;;11.27;5.80;;;;;;;23.93;43.63;99858.28;7737449;32;40206;-74
2022/05/12 07:57:54;;;;;;;12.20;5.05;;;;;;;24.12;42.47;99856.75;7736931;32;40719;-74
2022/05/12 08:02:15;;;;;;;11.25;6.20;;;;;;;24.00;42.87;99864.03;7736883;32;37942;-74
2022/05/12 08:06:33;;;;;;;9.50;5.50;;;;;;;24.22;42.23;99859.00;7720406;32;37936;-74
2022/05/12 08:10:49;;;;;;;10.93;5.37;;;;;;;24.83;41.45;99848.37;7736214;32;39336;-74
2022/05/12 08:15:06;;;;;;;8.82;5.07;;;;;;;24.90;41.80;99848.53;7736491;32;40761;-73
2022/05/12 08:19:22;;;;;;;11.90;5.00;;;;;;;24.72;40.91;99862.91;7736470;32;37731;-73
2022/05/12 08:23:39;;;;;;;7.45;4.53;;;;;;;24.82;40.26;99863.50;7739627;32;36729;-73
2022/05/12 08:27:55;;;;;;;14.52;4.87;;;;;;;24.56;40.31;99867.75;7739936;32;40054;-73
2022/05/12 08:32:11;;;;;;;8.98;4.80;;;;;;;25.30;40.33;99873.25;7739414;32;39922;-74
2022/05/12 08:36:28;;;;;;;12.48;4.65;;;;;;;25.35;39.23;99869.34;7739275;32;38108;-74
2022/05/12 08:41:18;;;;;;;8.80;4.53;;;;;;;25.32;38.64;99875.69;7733478;32;201824;-70
2022/05/12 08:45:35;;;;;;;8.27;4.75;;;;;;;25.63;37.50;99879.41;7739946;32;39894;-70
2022/05/12 08:49:52;;;;;;;10.13;5.12;;;;;;;26.38;37.68;99871.47;7739739;32;40813;-69
2022/05/12 08:54:14;;;;;;;11.63;5.10;;;;;;;26.15;37.68;99877.13;7739471;32;37888;-70
2022/05/12 08:58:35;;;;;;;9.07;5.05;;;;;;;26.28;37.76;99863.75;7738413;32;37228;-70
2022/05/12 09:03:02;;;;;;;8.95;4.80;;;;;;;26.53;37.38;99856.53;7738250;32;38347;-70
2022/05/12 09:07:22;;;;;;;9.30;4.78;;;;;;;26.71;36.86;99864.37;7738131;32;39840;-70
2022/05/12 09:11:53;;;;;;;9.18;4.47;;;;;;;27.01;35.97;99861.56;7739219;32;37918;-70
2022/05/12 09:16:13;;;;;;;13.23;4.62;;;;;;;27.18;34.56;99860.12;7739371;32;37934;-70
2022/05/12 09:20:35;;;;;;;10.90;4.43;;;;;;;27.68;34.85;99857.88;7739255;32;40115;-70
2022/05/12 09:24:52;;;;;;;6.47;3.77;;;;;;;27.98;33.17;99859.75;7739231;32;40910;-71
2022/05/12 09:29:16;;;;;;;8.00;4.32;;;;;;;28.30;31.27;99850.72;7737985;32;37859;-70
2022/05/12 09:33:34;;;;;;;7.62;4.15;;;;;;;28.57;32.36;99848.53;7738677;32;37223;-70
2022/05/12 09:37:52;;;;;;;10.27;4.30;;;;;;;28.45;31.82;99852.44;7721617;32;39937;-70
2022/05/12 09:42:16;;;;;;;11.10;4.25;;;;;;;28.60;30.52;99853.34;7712120;32;39919;-75
2022/05/12 09:46:39;;;;;;;6.10;3.70;;;;;;;28.73;30.45;99851.00;7712190;32;38745;-76
2022/05/12 09:51:17;;;;;;;6.95;4.10;;;;;;;29.16;31.21;99851.16;7710963;32;37791;-77
2022/05/12 09:55:42;;;;;;;8.65;3.90;;;;;;;29.28;28.41;99846.41;7712076;32;39381;-76
2022/05/12 09:59:58;;;;;;;18.08;4.35;;;;;;;28.37;30.83;99845.19;7711966;32;40745;-76
2022/05/12 10:09:26;;;;;;;7.60;3.47;;;;;;;29.45;29.82;99850.44;7738428;32;37791;-77
2022/05/12 10:13:50;;;;;;;6.22;3.85;;;;;;;29.78;31.19;99849.28;7736820;32;39137;-78
2022/05/12 10:18:20;;;;;;;8.23;3.45;;;;;;;29.66;29.83;99855.28;7731900;32;40632;-77
2022/05/12 10:22:48;;;;;;;7.70;3.97;;;;;;;29.65;29.94;99848.84;7711706;32;37854;-77
2022/05/12 10:27:20;;;;;;;12.57;4.03;;;;;;;30.29;27.32;99845.22;7711782;32;37234;-77
2022/05/12 10:32:27;;;;;;;9.18;3.60;;;;;;;30.09;27.63;99852.47;7711690;32;39894;-79
2022/05/12 10:36:46;;;;;;;9.80;3.67;;;;;;;30.13;27.42;99837.22;7708112;32;39914;-76
2022/05/12 10:41:14;;;;;;;8.38;3.80;;;;;;;29.86;27.57;99842.47;7738203;32;37965;-78
2022/05/12 10:45:38;;;;;;;10.98;3.62;;;;;;;29.50;28.29;99834.00;7737153;32;36847;-78
2022/05/12 10:50:13;;;;;;;6.15;3.25;;;;;;;29.84;29.59;99828.00;7731601;32;39146;-78
2022/05/12 10:54:47;;;;;;;7.82;3.75;;;;;;;30.24;27.58;99823.13;7736191;32;39969;-78
2022/05/12 10:59:05;;;;;;;8.63;3.47;;;;;;;30.78;26.33;99819.34;7737104;32;38767;-78
2022/05/12 11:03:44;;;;;;;6.97;4.10;;;;;;;30.68;27.15;99829.44;7736749;32;37090;-80
2022/05/12 11:08:21;;;;;;;5.95;3.55;;;;;;;30.51;27.48;99817.03;7719364;32;40124;-80
2022/05/12 11:12:46;;;;;;;10.20;3.83;;;;;;;30.39;28.56;99809.06;7736346;32;40728;-80
2022/05/12 11:17:30;;;;;;;8.23;3.40;;;;;;;30.96;26.43;99810.84;7736606;32;35925;-79
2022/05/12 11:22:10;;;;;;;6.93;3.08;;;;;;;31.72;25.87;99813.94;7737306;32;37691;-80
2022/05/12 11:27:06;;;;;;;7.70;3.45;;;;;;;31.78;25.49;99810.28;7736336;32;39109;-78
2022/05/12 11:31:32;;;;;;;10.82;3.47;;;;;;;31.10;26.21;99795.87;7735911;32;39706;-78
2022/05/12 11:35:51;;;;;;;8.38;3.35;;;;;;;32.39;24.62;99797.59;7730994;32;39091;-80
2022/05/12 11:40:32;;;;;;;4.18;3.00;;;;;;;32.13;24.09;99793.47;7713447;32;35351;-80
2022/05/12 11:45:05;;;;;;;6.93;3.10;;;;;;;32.28;24.51;99792.06;7734223;32;39285;-80
2022/05/12 11:49:36;;;;;;;6.10;3.42;;;;;;;32.11;25.39;99788.22;7735491;32;39862;-80
2022/05/12 11:53:58;;;;;;;9.97;3.60;;;;;;;32.43;24.87;99786.28;7735539;32;37638;-81
2022/05/12 11:58:14;;;;;;;9.73;3.47;;;;;;;32.52;23.12;99778.09;7735018;32;37341;-81
2022/05/12 12:02:33;;;;;;;7.00;3.12;;;;;;;32.88;23.20;99784.09;7736180;32;39963;-82
2022/05/12 12:06:53;;;;;;;8.15;3.45;;;;;;;32.55;23.42;99786.53;7736798;32;39997;-78
2022/05/12 12:11:17;;;;;;;7.68;3.10;;;;;;;33.23;23.44;99787.63;7734580;32;37868;-78
2022/05/12 12:16:00;;;;;;;12.45;3.42;;;;;;;33.17;21.00;99782.91;7736399;32;37810;-80
2022/05/12 12:20:29;;;;;;;7.20;2.92;;;;;;;31.92;21.96;99775.50;7734819;32;39053;-80
2022/05/12 12:25:04;;;;;;;5.10;3.03;;;;;;;32.17;21.76;99760.41;7736183;32;40764;-80
2022/05/12 12:29:39;;;;;;;4.93;2.78;;;;;;;32.42;22.38;99757.25;7736137;32;37635;-81
2022/05/12 12:34:07;;;;;;;7.45;2.70;;;;;;;32.68;21.78;99757.75;7734759;32;37064;-80
2022/05/12 12:38:41;;;;;;;9.27;3.33;;;;;;;32.91;21.32;99757.06;7735497;32;39319;-81
2022/05/12 12:42:58;;;;;;;4.45;2.90;;;;;;;32.51;22.25;99751.94;7735664;32;39901;-79
2022/05/12 12:47:43;;;;;;;5.10;2.72;;;;;;;32.94;22.17;99750.53;7728085;32;38125;-80
2022/05/12 12:52:08;;;;;;;7.50;2.65;;;;;;;33.15;21.40;99746.62;7735064;32;36969;-81
2022/05/12 12:56:30;;;;;;;3.80;2.47;;;;;;;33.02;21.10;99749.22;7734564;32;39156;-77
2022/05/12 13:00:55;;;;;;;4.07;2.40;;;;;;;32.92;20.62;99742.50;7733844;32;39860;-78
2022/05/12 13:05:18;;;;;;;6.12;2.78;;;;;;;33.61;20.17;99730.12;7733815;32;37927;-77
2022/05/12 13:09:39;;;;;;;5.45;3.15;;;;;;;33.49;20.66;99737.19;7737813;32;37775;-80
2022/05/12 13:13:58;;;;;;;5.70;3.03;;;;;;;32.83;20.38;99728.13;7737179;32;39753;-75
2022/05/12 13:18:26;;;;;;;5.78;2.40;;;;;;;32.97;21.05;99726.31;7739228;32;39753;-78
2022/05/12 13:23:07;;;;;;;7.10;2.87;;;;;;;33.22;21.15;99718.28;7738418;32;37922;-79
2022/05/12 13:27:28;;;;;;;7.22;2.85;;;;;;;32.93;22.05;99726.37;7739077;32;37220;-79
2022/05/12 13:31:53;;;;;;;3.37;2.70;;;;;;;33.91;22.08;99709.41;7738981;32;40045;-77
2022/05/12 13:36:20;;;;;;;7.57;3.10;;;;;;;33.70;20.29;99713.41;7737090;32;40793;-78
2022/05/12 13:40:40;;;;;;;9.38;2.85;;;;;;;33.83;20.14;99713.59;7737523;32;37797;-79
2022/05/12 13:45:22;;;;;;;7.82;3.08;;;;;;;33.97;21.22;99707.66;7738081;32;37172;-81
2022/05/12 13:49:40;;;;;;;;;;;;;;;34.09;19.84;99705.41;7728852;32;39207;-81
2022/05/12 13:54:08;;;;;;;19.98;3.70;;;;;;;33.78;19.99;99714.88;7738297;32;40949;-77
2022/05/12 13:58:23;;;;;;;5.90;2.90;;;;;;;33.58;21.23;99706.34;7738317;32;38707;-75
2022/05/12 14:02:42;;;;;;;7.45;3.00;;;;;;;33.33;20.70;99706.00;7737572;32;37090;-75
2022/05/12 14:07:00;;;;;;;12.18;3.33;;;;;;;32.65;22.98;99696.53;7738103;32;39098;-76
2022/05/12 14:11:26;;;;;;;7.47;3.05;;;;;;;32.71;23.38;99706.91;7738246;32;40711;-75
2022/05/12 14:20:25;;;;;;;11.80;3.53;;;;;;;34.53;22.52;99686.31;7737042;32;37227;-76
2022/05/12 14:24:45;;;;;;;8.25;3.20;;;;;;;34.85;21.84;99679.13;7738210;32;39324;-76
2022/05/12 14:29:01;;;;;;;22.75;3.87;;;;;;;34.99;21.37;99675.94;7738043;32;40043;-76
2022/05/12 14:33:18;;;;;;;7.53;3.80;;;;;;;35.21;21.84;99666.94;7738304;32;38751;-77
2022/05/12 14:37:35;;;;;;;3.47;2.90;;;;;;;35.92;20.27;99670.69;7737352;32;36928;-76
2022/05/12 14:41:51;;;;;;;6.32;3.22;;;;;;;36.17;19.38;99674.03;7738129;32;39449;-75
2022/05/12 14:46:08;;;;;;;7.62;3.97;;;;;;;36.32;19.77;99665.94;7737386;32;40792;-76
2022/05/12 14:50:24;;;;;;;9.30;3.58;;;;;;;36.21;20.73;99661.38;7729708;32;38511;-76
2022/05/12 14:54:43;;;;;;;7.07;3.22;;;;;;;36.21;20.77;99661.38;7737955;32;37230;-76
2022/05/12 14:59:00;;;;;;;5.87;3.00;;;;;;;36.92;20.52;99663.22;7737192;32;40221;-76
2022/05/12 15:03:16;;;;;;;6.97;3.45;;;;;;;36.72;21.64;99663.50;7737684;32;40756;-76
2022/05/12 15:07:33;;;;;;;7.72;3.20;;;;;;;36.87;20.16;99660.97;7737072;32;38437;-77
2022/05/12 15:11:49;;;;;;;12.45;3.75;;;;;;;35.85;20.21;99665.22;7737796;32;37980;-77
2022/05/12 15:16:06;;;;;;;9.93;3.67;;;;;;;35.64;20.03;99674.31;7737212;32;39523;-77
2022/05/12 15:20:23;;;;;;;6.53;3.17;;;;;;;35.86;20.34;99677.38;7736191;32;40689;-77
2022/05/12 15:24:40;;;;;;;16.62;4.00;;;;;;;35.79;20.85;99667.03;7737597;32;37926;-76
2022/05/12 15:28:56;;;;;;;7.30;3.10;;;;;;;35.66;20.71;99672.63;7735601;32;37962;-76
2022/05/12 15:33:12;;;;;;;15.63;3.65;;;;;;;35.72;21.48;99676.53;7736810;32;39329;-77
2022/05/12 15:37:28;;;;;;;12.05;3.33;;;;;;;35.84;20.05;99677.00;7736601;32;40880;-76
2022/05/12 15:41:46;;;;;;;5.55;3.17;;;;;;;35.68;20.30;99680.66;7737138;32;38658;-76
2022/05/12 15:46:04;;;;;;;6.20;2.87;;;;;;;35.70;20.52;99683.84;7736984;32;37257;-75
2022/05/12 15:50:29;;;;;;;7.62;3.15;;;;;;;35.08;21.83;99684.66;7727335;32;38293;-75
2022/05/12 15:54:45;;;;;;;6.95;2.83;;;;;;;34.85;22.42;99688.41;7737112;32;40050;-76
2022/05/12 15:59:01;;;;;;;8.07;3.53;;;;;;;34.86;22.38;99694.88;7736182;32;37916;-76
2022/05/12 16:03:18;;;;;;;6.60;3.17;;;;;;;34.72;21.90;99690.34;7736894;32;37077;-76
2022/05/12 16:07:34;;;;;;;11.27;3.47;;;;;;;34.64;22.43;99689.69;7736137;32;39256;-77
2022/05/12 16:12:21;;;;;;;23.62;4.10;;;;;;;34.92;22.32;99688.25;7736295;32;39566;-75
2022/05/12 16:16:34;;;;;;;5.28;3.50;;;;;;;34.36;22.19;99688.31;7735505;32;38672;-76
2022/05/12 16:20:50;;;;;;;8.55;3.42;;;;;;;33.94;23.08;99690.75;7735637;32;37207;-77
2022/05/12 16:25:17;;;;;;;8.38;3.37;;;;;;;33.27;23.00;99700.03;7736662;32;39128;-77
2022/05/12 16:29:40;;;;;;;5.85;3.10;;;;;;;32.91;24.81;99709.06;7735637;32;40625;-77
2022/05/12 16:33:57;;;;;;;5.10;3.40;;;;;;;32.76;24.06;99705.66;7734858;32;36446;-76
2022/05/12 16:38:13;;;;;;;7.10;3.85;;;;;;;33.09;24.72;99700.31;7735732;32;37003;-76
2022/05/12 16:42:30;;;;;;;10.52;3.33;;;;;;;32.73;25.36;99698.81;7737430;32;40093;-77
2022/05/12 16:46:47;;;;;;;15.90;4.12;;;;;;;32.60;25.49;99699.78;7739506;32;40390;-75
2022/05/12 16:51:03;;;;;;;13.65;4.30;;;;;;;32.14;26.61;99697.16;7730990;32;37828;-75
2022/05/12 16:55:19;;;;;;;14.75;4.00;;;;;;;32.25;25.83;99693.41;7739506;32;37212;-76
2022/05/12 16:59:36;;;;;;;6.97;3.45;;;;;;;32.04;25.74;99698.06;7738496;32;39178;-75
2022/05/12 17:03:52;;;;;;;7.07;3.30;;;;;;;31.84;26.24;99706.38;7739172;32;39690;-75
2022/05/12 17:08:09;;;;;;;8.38;3.53;;;;;;;31.94;25.36;99702.63;7739186;32;38129;-75
2022/05/12 17:12:28;;;;;;;6.65;2.87;;;;;;;31.70;26.20;99700.88;7738515;32;37738;-76
2022/05/12 17:16:45;;;;;;;6.87;3.12;;;;;;;31.53;26.35;99697.00;7739372;32;39299;-76
2022/05/12 17:21:03;;;;;;;6.75;3.70;;;;;;;31.48;26.63;99694.59;7738310;32;39994;-74
2022/05/12 17:25:19;;;;;;;6.97;3.22;;;;;;;31.16;27.36;99696.50;7739120;32;37946;-75
2022/05/12 17:29:35;;;;;;;7.82;3.35;;;;;;;30.87;27.37;99696.72;7738742;32;37816;-76
2022/05/12 17:33:52;;;;;;;8.27;3.35;;;;;;;30.85;27.66;99693.47;7738568;32;39404;-75
2022/05/12 17:38:08;;;;;;;12.13;3.62;;;;;;;30.35;29.28;99699.41;7737704;32;40760;-79
2022/05/12 17:42:24;;;;;;;6.85;3.20;;;;;;;30.59;29.79;99697.66;7737991;32;37899;-81
2022/05/12 17:46:40;;;;;;;4.93;2.67;;;;;;;30.28;30.69;99700.19;7737256;32;36857;-74
2022/05/12 17:50:57;;;;;;;25.85;6.18;;;;;;;29.98;31.63;99697.09;7739094;32;39097;-77
2022/05/12 17:55:13;;;;;;;10.20;3.80;;;;;;;29.71;30.83;99700.38;7738321;32;39988;-77
2022/05/12 17:59:30;;;;;;;6.90;3.22;;;;;;;29.46;31.62;99717.25;7738758;32;38148;-76
2022/05/12 18:03:47;;;;;;;7.10;3.87;;;;;;;29.33;31.31;99716.88;7738814;32;37670;-75
2022/05/12 18:08:08;;;;;;;11.25;4.50;;;;;;;28.92;32.55;99718.00;7738838;32;39280;-77
2022/05/12 18:12:25;;;;;;;9.68;3.67;;;;;;;28.57;32.36;99719.53;7737434;32;40757;-77
2022/05/12 18:16:41;;;;;;;6.87;3.65;;;;;;;28.67;32.60;99731.97;7738644;32;38510;-76
2022/05/12 18:20:57;;;;;;;11.10;4.22;;;;;;;28.54;33.39;99739.12;7738576;32;37112;-76
2022/05/12 18:25:13;;;;;;;6.70;3.75;;;;;;;28.25;34.23;99750.19;7738402;32;40654;-75
2022/05/12 18:29:30;;;;;;;6.57;3.40;;;;;;;27.96;34.81;99741.66;7738640;32;39791;-75
2022/05/12 18:33:46;;;;;;;11.63;4.10;;;;;;;27.76;34.98;99759.91;7737204;32;38755;-76
2022/05/12 18:38:03;;;;;;;6.57;3.65;;;;;;;27.60;35.34;99763.00;7738478;32;37617;-76
2022/05/12 18:42:19;;;;;;;10.02;6.75;;;;;;;27.77;34.38;99778.31;7738349;32;39451;-76
2022/05/12 18:46:37;;;;;;;9.18;4.53;;;;;;;27.46;34.89;99781.28;7738306;32;40769;-76
2022/05/12 18:50:53;;;;;;;7.07;3.97;;;;;;;27.30;35.77;99778.75;7738211;32;40034;-76
2022/05/12 18:55:10;;;;;;;8.48;3.85;;;;;;;27.00;36.45;99794.78;7738286;32;38659;-76
2022/05/12 18:59:26;;;;;;;8.43;4.35;;;;;;;27.04;35.84;99804.03;7731599;32;39249;-76
2022/05/12 19:03:43;;;;;;;4.68;3.50;;;;;;;26.86;36.27;99810.22;7738011;32;40796;-76
2022/05/12 19:08:00;;;;;;;5.78;3.70;;;;;;;26.76;36.34;99805.31;7735734;32;37897;-76
2022/05/12 19:12:25;;;;;;;5.00;3.30;;;;;;;26.42;36.70;99813.62;7709980;32;37050;-76
2022/05/12 19:16:41;;;;;;;6.30;3.85;;;;;;;26.46;36.78;99820.09;7710433;32;39231;-76
2022/05/12 19:21:00;;;;;;;8.55;3.78;;;;;;;26.37;36.97;99822.34;7710883;32;40072;-77
2022/05/12 19:25:16;;;;;;;7.37;3.70;;;;;;;25.96;38.11;99831.34;7710818;32;36775;-75
2022/05/12 19:29:32;;;;;;;7.62;4.07;;;;;;;25.76;38.25;99838.97;7711058;32;36834;-76
2022/05/12 19:33:48;;;;;;;6.95;3.55;;;;;;;25.90;38.04;99846.78;7710629;32;39831;-79
2022/05/12 19:38:06;;;;;;;8.60;4.22;;;;;;;26.02;38.17;99841.00;7710748;32;39911;-74
2022/05/12 19:42:22;;;;;;;4.95;3.95;;;;;;;25.98;38.85;99851.31;7709262;32;38657;-75
2022/05/12 19:46:38;;;;;;;8.73;4.05;;;;;;;25.93;38.67;99859.19;7710774;32;37064;-75
2022/05/12 19:50:54;;;;;;;8.68;4.18;;;;;;;25.92;36.70;99866.75;7710238;32;40076;-78
2022/05/12 19:55:12;;;;;;;8.20;4.22;;;;;;;25.96;37.60;99869.66;7710460;32;41262;-77
2022/05/12 19:59:29;;;;;;;7.57;3.45;;;;;;;25.77;38.24;99851.75;7710337;32;37070;-75
2022/05/12 20:03:45;;;;;;;5.25;3.50;;;;;;;25.68;38.15;99862.34;7709746;32;37089;-73
2022/05/12 20:08:02;;;;;;;7.50;3.60;;;;;;;25.71;38.00;99860.81;7709933;32;40018;-75
2022/05/12 20:12:18;;;;;;;6.70;4.00;;;;;;;25.64;38.15;99875.44;7709671;32;38426;-76
2022/05/12 20:16:34;;;;;;;5.57;3.58;;;;;;;25.27;38.89;99873.19;7710319;32;38747;-75
2022/05/12 20:20:50;;;;;;;5.47;3.35;;;;;;;25.27;38.72;99867.62;7721751;32;37073;-75
2022/05/12 20:25:06;;;;;;;10.15;3.55;;;;;;;25.02;39.31;99873.47;7724927;32;40053;-74
2022/05/12 20:29:22;;;;;;;9.90;3.40;;;;;;;24.85;39.28;99862.75;7724427;32;39737;-74